sensor_id;sensor_type;location;lat;lon;timestamp;pressure;altitude;pressure_sealevel;temperature;humidity
52949;BME280;38812;50.942;3.644;2023-09-18T00:00:01;100232.88;;;19.98;nan
52949;BME280;38812;50.942;3.644;2023-09-18T00:02:26;100232.78;;;20.00;nan
52949;BME280;38812;50.942;3.644;2023-09-18T00:04:53;100264.03;;;20.10;nan
52949;BME280;38812;50.942;3.644;2023-09-18T00:07:18;100247.38;;;20.19;nan
52949;BME280;38812;50.942;3.644;2023-09-18T00:09:43;100239.91;;;20.25;nan
52949;BME280;38812;50.942;3.644;2023-09-18T00:12:09;100226.91;;;20.33;nan
52949;BME280;38812;50.942;3.644;2023-09-18T00:14:37;100216.03;;;20.23;nan
52949;BME280;38812;50.942;3.644;2023-09-18T00:17:03;100215.16;;;20.23;nan
52949;BME280;38812;50.942;3.644;2023-09-18T00:19:29;100210.91;;;20.20;nan
52949;BME280;38812;50.942;3.644;2023-09-18T00:21:55;100241.19;;;20.19;nan
52949;BME280;38812;50.942;3.644;2023-09-18T00:24:21;100257.09;;;20.20;nan
52949;BME280;38812;50.942;3.644;2023-09-18T00:26:47;100251.97;;;20.17;nan
52949;BME280;38812;50.942;3.644;2023-09-18T00:29:13;100246.84;;;20.14;nan
52949;BME280;38812;50.942;3.644;2023-09-18T00:31:39;100252.94;;;20.16;nan
52949;BME280;38812;50.942;3.644;2023-09-18T00:34:04;100246.13;;;20.12;nan
52949;BME280;38812;50.942;3.644;2023-09-18T00:36:29;100237.59;;;20.07;nan
52949;BME280;38812;50.942;3.644;2023-09-18T00:38:54;100223.72;;;20.02;nan
52949;BME280;38812;50.942;3.644;2023-09-18T00:41:20;100215.19;;;19.97;nan
52949;BME280;38812;50.942;3.644;2023-09-18T00:43:45;100181.19;;;19.88;nan
52949;BME280;38812;50.942;3.644;2023-09-18T00:46:11;100183.00;;;19.88;nan
52949;BME280;38812;50.942;3.644;2023-09-18T00:48:36;100184.06;;;19.85;nan
52949;BME280;38812;50.942;3.644;2023-09-18T00:51:02;100176.38;;;19.80;nan
52949;BME280;38812;50.942;3.644;2023-09-18T00:53:27;100167.75;;;19.77;nan
52949;BME280;38812;50.942;3.644;2023-09-18T00:55:54;100164.44;;;19.73;nan
52949;BME280;38812;50.942;3.644;2023-09-18T00:58:21;100179.81;;;19.70;nan
52949;BME280;38812;50.942;3.644;2023-09-18T01:00:47;100169.25;;;19.68;nan
52949;BME280;38812;50.942;3.644;2023-09-18T01:03:16;100157.84;;;19.66;nan
52949;BME280;38812;50.942;3.644;2023-09-18T01:05:44;100150.16;;;19.62;nan
52949;BME280;38812;50.942;3.644;2023-09-18T01:08:09;100156.56;;;19.59;nan
52949;BME280;38812;50.942;3.644;2023-09-18T01:10:53;100142.28;;;19.60;nan
52949;BME280;38812;50.942;3.644;2023-09-18T01:13:28;100138.66;;;19.61;nan
52949;BME280;38812;50.942;3.644;2023-09-18T01:15:59;100139.41;;;19.63;nan
52949;BME280;38812;50.942;3.644;2023-09-18T01:18:27;100134.94;;;19.64;nan
52949;BME280;38812;50.942;3.644;2023-09-18T01:20:53;100149.97;;;19.65;nan
52949;BME280;38812;50.942;3.644;2023-09-18T01:23:18;100103.50;;;19.69;nan
52949;BME280;38812;50.942;3.644;2023-09-18T01:25:43;100081.22;;;19.70;nan
52949;BME280;38812;50.942;3.644;2023-09-18T01:28:09;100070.22;;;19.62;nan
52949;BME280;38812;50.942;3.644;2023-09-18T01:30:34;100043.38;;;19.52;nan
52949;BME280;38812;50.942;3.644;2023-09-18T01:33:01;100039.97;;;19.50;nan
52949;BME280;38812;50.942;3.644;2023-09-18T01:35:28;100030.38;;;19.47;nan
52949;BME280;38812;50.942;3.644;2023-09-18T01:37:58;100035.91;;;19.44;nan
52949;BME280;38812;50.942;3.644;2023-09-18T01:40:25;100043.38;;;19.39;nan
52949;BME280;38812;50.942;3.644;2023-09-18T01:42:52;100047.94;;;19.37;nan
52949;BME280;38812;50.942;3.644;2023-09-18T01:45:17;100050.59;;;19.37;nan
52949;BME280;38812;50.942;3.644;2023-09-18T01:47:43;100049.09;;;19.33;nan
52949;BME280;38812;50.942;3.644;2023-09-18T01:50:09;100056.88;;;19.36;nan
52949;BME280;38812;50.942;3.644;2023-09-18T01:52:34;100041.13;;;19.33;nan
52949;BME280;38812;50.942;3.644;2023-09-18T01:55:01;100040.06;;;19.36;nan
52949;BME280;38812;50.942;3.644;2023-09-18T01:57:26;100017.16;;;19.33;nan
52949;BME280;38812;50.942;3.644;2023-09-18T01:59:51;100015.66;;;19.29;nan
52949;BME280;38812;50.942;3.644;2023-09-18T02:02:17;100021.84;;;19.30;nan
52949;BME280;38812;50.942;3.644;2023-09-18T02:04:42;100021.09;;;19.28;nan
52949;BME280;38812;50.942;3.644;2023-09-18T02:07:08;100030.16;;;19.25;nan
52949;BME280;38812;50.942;3.644;2023-09-18T02:09:34;100031.34;;;19.21;nan
52949;BME280;38812;50.942;3.644;2023-09-18T02:11:59;100034.41;;;19.15;nan
52949;BME280;38812;50.942;3.644;2023-09-18T02:14:25;100046.22;;;19.11;nan
52949;BME280;38812;50.942;3.644;2023-09-18T02:16:50;100061.44;;;19.09;nan
52949;BME280;38812;50.942;3.644;2023-09-18T02:19:16;100072.09;;;19.09;nan
52949;BME280;38812;50.942;3.644;2023-09-18T02:21:43;100075.72;;;19.08;nan
52949;BME280;38812;50.942;3.644;2023-09-18T02:24:08;100050.16;;;19.05;nan
52949;BME280;38812;50.942;3.644;2023-09-18T02:26:34;100063.38;;;19.07;nan
52949;BME280;38812;50.942;3.644;2023-09-18T02:29:08;100067.97;;;19.05;nan
52949;BME280;38812;50.942;3.644;2023-09-18T02:31:39;100093.59;;;19.06;nan
52949;BME280;38812;50.942;3.644;2023-09-18T02:34:04;100101.94;;;19.01;nan
52949;BME280;38812;50.942;3.644;2023-09-18T02:36:30;100083.59;;;18.97;nan
52949;BME280;38812;50.942;3.644;2023-09-18T02:38:55;100096.81;;;18.98;nan
52949;BME280;38812;50.942;3.644;2023-09-18T02:41:21;100113.53;;;19.00;nan
52949;BME280;38812;50.942;3.644;2023-09-18T02:43:46;100113.72;;;18.97;nan
52949;BME280;38812;50.942;3.644;2023-09-18T02:46:11;100099.97;;;18.91;nan
52949;BME280;38812;50.942;3.644;2023-09-18T02:48:37;100118.09;;;18.98;nan
52949;BME280;38812;50.942;3.644;2023-09-18T02:51:02;100098.06;;;18.93;nan
52949;BME280;38812;50.942;3.644;2023-09-18T02:53:28;100097.31;;;18.91;nan
52949;BME280;38812;50.942;3.644;2023-09-18T02:55:55;100093.91;;;18.89;nan
52949;BME280;38812;50.942;3.644;2023-09-18T02:58:21;100094.84;;;18.88;nan
52949;BME280;38812;50.942;3.644;2023-09-18T03:00:49;100088.88;;;18.84;nan
52949;BME280;38812;50.942;3.644;2023-09-18T03:03:16;100075.91;;;18.79;nan
52949;BME280;38812;50.942;3.644;2023-09-18T03:05:42;100075.56;;;18.84;nan
52949;BME280;38812;50.942;3.644;2023-09-18T03:08:08;100085.69;;;18.79;nan
52949;BME280;38812;50.942;3.644;2023-09-18T03:10:38;100074.41;;;18.75;nan
52949;BME280;38812;50.942;3.644;2023-09-18T03:13:08;100071.84;;;18.74;nan
52949;BME280;38812;50.942;3.644;2023-09-18T03:15:35;100065.88;;;18.70;nan
52949;BME280;38812;50.942;3.644;2023-09-18T03:18:01;100056.19;;;18.69;nan
52949;BME280;38812;50.942;3.644;2023-09-18T03:20:28;100054.28;;;18.71;nan
52949;BME280;38812;50.942;3.644;2023-09-18T03:22:56;100048.19;;;18.69;nan
52949;BME280;38812;50.942;3.644;2023-09-18T03:25:21;100046.28;;;18.71;nan
52949;BME280;38812;50.942;3.644;2023-09-18T03:27:51;100057.78;;;18.72;nan
52949;BME280;38812;50.942;3.644;2023-09-18T03:30:18;100051.16;;;18.65;nan
52949;BME280;38812;50.942;3.644;2023-09-18T03:32:43;100056.94;;;18.71;nan
52949;BME280;38812;50.942;3.644;2023-09-18T03:35:10;100033.28;;;18.67;nan
52949;BME280;38812;50.942;3.644;2023-09-18T03:37:43;100023.94;;;18.61;nan
52949;BME280;38812;50.942;3.644;2023-09-18T03:40:09;100035.03;;;18.54;nan
52949;BME280;38812;50.942;3.644;2023-09-18T03:42:34;100026.41;;;18.50;nan
52949;BME280;38812;50.942;3.644;2023-09-18T03:45:00;100039.91;;;18.47;nan
52949;BME280;38812;50.942;3.644;2023-09-18T03:47:25;100039.25;;;18.43;nan
52949;BME280;38812;50.942;3.644;2023-09-18T03:49:51;100044.66;;;18.42;nan
52949;BME280;38812;50.942;3.644;2023-09-18T03:52:16;100046.59;;;18.40;nan
52949;BME280;38812;50.942;3.644;2023-09-18T03:54:41;100041.69;;;18.34;nan
52949;BME280;38812;50.942;3.644;2023-09-18T03:57:07;100123.34;;;18.32;nan
52949;BME280;38812;50.942;3.644;2023-09-18T03:59:32;100069.72;;;18.25;nan
52949;BME280;38812;50.942;3.644;2023-09-18T04:01:57;100060.59;;;18.29;nan
52949;BME280;38812;50.942;3.644;2023-09-18T04:04:23;100109.50;;;18.27;nan
52949;BME280;38812;50.942;3.644;2023-09-18T04:06:48;100053.84;;;18.24;nan
52949;BME280;38812;50.942;3.644;2023-09-18T04:09:15;100055.66;;;18.23;nan
52949;BME280;38812;50.942;3.644;2023-09-18T04:11:40;100068.28;;;18.20;nan
52949;BME280;38812;50.942;3.644;2023-09-18T04:14:05;100054.78;;;18.10;nan
52949;BME280;38812;50.942;3.644;2023-09-18T04:16:31;100057.31;;;18.11;nan
52949;BME280;38812;50.942;3.644;2023-09-18T04:19:03;100060.94;;;18.10;nan
52949;BME280;38812;50.942;3.644;2023-09-18T04:21:29;100063.03;;;18.05;nan
52949;BME280;38812;50.942;3.644;2023-09-18T04:23:55;100065.78;;;18.04;nan
52949;BME280;38812;50.942;3.644;2023-09-18T04:26:25;100070.25;;;18.03;nan
52949;BME280;38812;50.942;3.644;2023-09-18T04:28:55;100067.03;;;17.98;nan
52949;BME280;38812;50.942;3.644;2023-09-18T04:31:20;100064.78;;;17.92;nan
52949;BME280;38812;50.942;3.644;2023-09-18T04:33:46;100057.66;;;17.93;nan
52949;BME280;38812;50.942;3.644;2023-09-18T04:36:11;100063.84;;;17.93;nan
52949;BME280;38812;50.942;3.644;2023-09-18T04:38:37;100061.06;;;17.95;nan
52949;BME280;38812;50.942;3.644;2023-09-18T04:41:02;100057.00;;;17.89;nan
52949;BME280;38812;50.942;3.644;2023-09-18T04:43:28;100054.25;;;17.91;nan
52949;BME280;38812;50.942;3.644;2023-09-18T04:45:55;100047.22;;;17.90;nan
52949;BME280;38812;50.942;3.644;2023-09-18T04:48:21;100032.53;;;17.84;nan
52949;BME280;38812;50.942;3.644;2023-09-18T04:50:46;100046.00;;;17.81;nan
52949;BME280;38812;50.942;3.644;2023-09-18T04:53:12;100043.75;;;17.75;nan
52949;BME280;38812;50.942;3.644;2023-09-18T04:55:38;100042.22;;;17.71;nan
52949;BME280;38812;50.942;3.644;2023-09-18T04:58:04;100041.66;;;17.66;nan
52949;BME280;38812;50.942;3.644;2023-09-18T05:00:30;100033.84;;;17.63;nan
52949;BME280;38812;50.942;3.644;2023-09-18T05:02:57;100025.31;;;17.58;nan
52949;BME280;38812;50.942;3.644;2023-09-18T05:05:25;100024.53;;;17.56;nan
52949;BME280;38812;50.942;3.644;2023-09-18T05:07:50;100020.50;;;17.50;nan
52949;BME280;38812;50.942;3.644;2023-09-18T05:10:16;100032.34;;;17.44;nan
52949;BME280;38812;50.942;3.644;2023-09-18T05:12:42;100020.97;;;17.42;nan
52949;BME280;38812;50.942;3.644;2023-09-18T05:15:08;100020.19;;;17.40;nan
52949;BME280;38812;50.942;3.644;2023-09-18T05:17:43;100017.16;;;17.32;nan
52949;BME280;38812;50.942;3.644;2023-09-18T05:20:10;100033.09;;;17.32;nan
52949;BME280;38812;50.942;3.644;2023-09-18T05:22:37;100020.03;;;17.29;nan
52949;BME280;38812;50.942;3.644;2023-09-18T05:25:03;100023.81;;;17.25;nan
52949;BME280;38812;50.942;3.644;2023-09-18T05:27:29;100018.88;;;17.19;nan
52949;BME280;38812;50.942;3.644;2023-09-18T05:29:54;100026.75;;;17.21;nan
52949;BME280;38812;50.942;3.644;2023-09-18T05:32:20;100038.22;;;17.21;nan
52949;BME280;38812;50.942;3.644;2023-09-18T05:34:45;100034.63;;;17.22;nan
52949;BME280;38812;50.942;3.644;2023-09-18T05:37:10;100035.66;;;17.20;nan
52949;BME280;38812;50.942;3.644;2023-09-18T05:39:36;100020.66;;;17.19;nan
52949;BME280;38812;50.942;3.644;2023-09-18T05:42:01;100010.25;;;17.16;nan
52949;BME280;38812;50.942;3.644;2023-09-18T05:44:27;100018.19;;;17.16;nan
52949;BME280;38812;50.942;3.644;2023-09-18T05:46:52;100022.47;;;17.18;nan
52949;BME280;38812;50.942;3.644;2023-09-18T05:49:17;100018.47;;;17.11;nan
52949;BME280;38812;50.942;3.644;2023-09-18T05:51:43;100042.38;;;17.11;nan
52949;BME280;38812;50.942;3.644;2023-09-18T05:54:08;100028.16;;;17.12;nan
52949;BME280;38812;50.942;3.644;2023-09-18T05:56:34;100015.81;;;17.11;nan
52949;BME280;38812;50.942;3.644;2023-09-18T05:59:00;100028.16;;;17.12;nan
52949;BME280;38812;50.942;3.644;2023-09-18T06:01:25;100038.13;;;17.08;nan
52949;BME280;38812;50.942;3.644;2023-09-18T06:03:51;100039.91;;;17.08;nan
52949;BME280;38812;50.942;3.644;2023-09-18T06:06:16;100031.09;;;17.07;nan
52949;BME280;38812;50.942;3.644;2023-09-18T06:08:41;100036.09;;;17.12;nan
52949;BME280;38812;50.942;3.644;2023-09-18T06:11:07;100040.69;;;17.10;nan
52949;BME280;38812;50.942;3.644;2023-09-18T06:13:32;100051.09;;;17.13;nan
52949;BME280;38812;50.942;3.644;2023-09-18T06:15:59;100043.59;;;17.05;nan
52949;BME280;38812;50.942;3.644;2023-09-18T06:18:24;100045.41;;;17.05;nan
52949;BME280;38812;50.942;3.644;2023-09-18T06:20:51;100051.66;;;17.04;nan
52949;BME280;38812;50.942;3.644;2023-09-18T06:23:16;100047.22;;;17.04;nan
52949;BME280;38812;50.942;3.644;2023-09-18T06:25:41;100047.13;;;17.06;nan
52949;BME280;38812;50.942;3.644;2023-09-18T06:28:07;100050.44;;;17.09;nan
52949;BME280;38812;50.942;3.644;2023-09-18T06:30:33;100049.78;;;17.06;nan
52949;BME280;38812;50.942;3.644;2023-09-18T06:32:59;100048.91;;;17.05;nan
52949;BME280;38812;50.942;3.644;2023-09-18T06:35:25;100063.03;;;17.06;nan
52949;BME280;38812;50.942;3.644;2023-09-18T06:37:50;100051.56;;;17.05;nan
52949;BME280;38812;50.942;3.644;2023-09-18T06:40:16;100055.06;;;17.06;nan
52949;BME280;38812;50.942;3.644;2023-09-18T06:42:41;100064.44;;;17.11;nan
52949;BME280;38812;50.942;3.644;2023-09-18T06:45:07;100069.47;;;17.16;nan
52949;BME280;38812;50.942;3.644;2023-09-18T06:47:33;100072.44;;;17.26;nan
52949;BME280;38812;50.942;3.644;2023-09-18T06:49:59;100089.81;;;17.45;nan
52949;BME280;38812;50.942;3.644;2023-09-18T06:52:26;100092.09;;;17.52;nan
52949;BME280;38812;50.942;3.644;2023-09-18T06:54:52;100100.94;;;17.66;nan
52949;BME280;38812;50.942;3.644;2023-09-18T06:57:17;100104.94;;;17.73;nan
52949;BME280;38812;50.942;3.644;2023-09-18T06:59:42;100124.28;;;17.75;nan
52949;BME280;38812;50.942;3.644;2023-09-18T07:02:08;100125.88;;;17.78;nan
52949;BME280;38812;50.942;3.644;2023-09-18T07:04:33;100153.97;;;17.82;nan
52949;BME280;38812;50.942;3.644;2023-09-18T07:06:59;100154.38;;;17.90;nan
52949;BME280;38812;50.942;3.644;2023-09-18T07:09:24;100162.03;;;18.09;nan
52949;BME280;38812;50.942;3.644;2023-09-18T07:11:51;100170.09;;;18.22;nan
52949;BME280;38812;50.942;3.644;2023-09-18T07:14:16;100178.25;;;18.33;nan
52949;BME280;38812;50.942;3.644;2023-09-18T07:16:43;100188.88;;;18.33;nan
52949;BME280;38812;50.942;3.644;2023-09-18T07:19:08;100192.84;;;18.54;nan
52949;BME280;38812;50.942;3.644;2023-09-18T07:21:37;100182.75;;;18.73;nan
52949;BME280;38812;50.942;3.644;2023-09-18T07:24:03;100191.63;;;18.87;nan
52949;BME280;38812;50.942;3.644;2023-09-18T07:26:29;100204.72;;;18.90;nan
52949;BME280;38812;50.942;3.644;2023-09-18T07:28:54;100200.25;;;18.90;nan
52949;BME280;38812;50.942;3.644;2023-09-18T07:31:19;100209.84;;;18.93;nan
52949;BME280;38812;50.942;3.644;2023-09-18T07:33:45;100216.50;;;19.00;nan
52949;BME280;38812;50.942;3.644;2023-09-18T07:36:10;100203.56;;;18.94;nan
52949;BME280;38812;50.942;3.644;2023-09-18T07:38:35;100219.34;;;18.97;nan
52949;BME280;38812;50.942;3.644;2023-09-18T07:41:02;100217.28;;;18.88;nan
52949;BME280;38812;50.942;3.644;2023-09-18T07:43:28;100219.84;;;18.89;nan
52949;BME280;38812;50.942;3.644;2023-09-18T07:45:53;100233.72;;;18.94;nan
52949;BME280;38812;50.942;3.644;2023-09-18T07:48:19;100238.47;;;19.16;nan
52949;BME280;38812;50.942;3.644;2023-09-18T07:50:46;100248.00;;;19.06;nan
52949;BME280;38812;50.942;3.644;2023-09-18T07:53:11;100244.63;;;19.04;nan
52949;BME280;38812;50.942;3.644;2023-09-18T07:55:37;100257.28;;;18.86;nan
52949;BME280;38812;50.942;3.644;2023-09-18T07:58:04;100251.53;;;18.79;nan
52949;BME280;38812;50.942;3.644;2023-09-18T08:00:30;100240.94;;;18.92;nan
52949;BME280;38812;50.942;3.644;2023-09-18T08:02:55;100251.66;;;19.05;nan
52949;BME280;38812;50.942;3.644;2023-09-18T08:05:26;100247.41;;;19.15;nan
52949;BME280;38812;50.942;3.644;2023-09-18T08:07:54;100258.25;;;19.12;nan
52949;BME280;38812;50.942;3.644;2023-09-18T08:10:22;100252.91;;;18.99;nan
52949;BME280;38812;50.942;3.644;2023-09-18T08:12:48;100266.13;;;19.01;nan
52949;BME280;38812;50.942;3.644;2023-09-18T08:15:15;100272.88;;;18.92;nan
52949;BME280;38812;50.942;3.644;2023-09-18T08:17:40;100275.81;;;18.88;nan
52949;BME280;38812;50.942;3.644;2023-09-18T08:20:06;100278.19;;;18.92;nan
52949;BME280;38812;50.942;3.644;2023-09-18T08:22:37;100280.47;;;18.98;nan
52949;BME280;38812;50.942;3.644;2023-09-18T08:25:03;100290.75;;;18.90;nan
52949;BME280;38812;50.942;3.644;2023-09-18T08:27:30;100278.91;;;18.81;nan
52949;BME280;38812;50.942;3.644;2023-09-18T08:29:56;100304.56;;;18.82;nan
52949;BME280;38812;50.942;3.644;2023-09-18T08:32:21;100285.94;;;18.82;nan
52949;BME280;38812;50.942;3.644;2023-09-18T08:34:46;100294.47;;;18.88;nan
52949;BME280;38812;50.942;3.644;2023-09-18T08:37:12;100290.06;;;19.01;nan
52949;BME280;38812;50.942;3.644;2023-09-18T08:39:38;100298.59;;;19.06;nan
52949;BME280;38812;50.942;3.644;2023-09-18T08:42:04;100294.97;;;19.21;nan
52949;BME280;38812;50.942;3.644;2023-09-18T08:44:30;100302.22;;;19.32;nan
52949;BME280;38812;50.942;3.644;2023-09-18T08:46:56;100315.97;;;19.52;nan
52949;BME280;38812;50.942;3.644;2023-09-18T08:49:23;100319.22;;;19.70;nan
52949;BME280;38812;50.942;3.644;2023-09-18T08:51:50;100307.28;;;19.63;nan
52949;BME280;38812;50.942;3.644;2023-09-18T08:54:16;100314.22;;;19.66;nan
52949;BME280;38812;50.942;3.644;2023-09-18T08:56:41;100314.06;;;19.55;nan
52949;BME280;38812;50.942;3.644;2023-09-18T08:59:07;100318.88;;;19.35;nan
52949;BME280;38812;50.942;3.644;2023-09-18T09:01:32;100324.53;;;19.16;nan
52949;BME280;38812;50.942;3.644;2023-09-18T09:03:58;100319.03;;;19.05;nan
52949;BME280;38812;50.942;3.644;2023-09-18T09:06:23;100314.03;;;19.01;nan
52949;BME280;38812;50.942;3.644;2023-09-18T09:08:49;100302.63;;;18.84;nan
52949;BME280;38812;50.942;3.644;2023-09-18T09:11:15;100310.09;;;18.79;nan
52949;BME280;38812;50.942;3.644;2023-09-18T09:13:40;100309.97;;;18.67;nan
52949;BME280;38812;50.942;3.644;2023-09-18T09:16:10;100321.66;;;18.64;nan
52949;BME280;38812;50.942;3.644;2023-09-18T09:18:47;100319.97;;;18.63;nan
52949;BME280;38812;50.942;3.644;2023-09-18T09:21:13;100314.53;;;18.65;nan
52949;BME280;38812;50.942;3.644;2023-09-18T09:23:49;100321.66;;;18.64;nan
52949;BME280;38812;50.942;3.644;2023-09-18T09:26:20;100331.16;;;18.68;nan
52949;BME280;38812;50.942;3.644;2023-09-18T09:28:47;100326.25;;;18.76;nan
52949;BME280;38812;50.942;3.644;2023-09-18T09:31:26;100330.00;;;18.87;nan
52949;BME280;38812;50.942;3.644;2023-09-18T09:33:54;100334.91;;;19.07;nan
52949;BME280;38812;50.942;3.644;2023-09-18T09:36:22;100321.25;;;18.99;nan
52949;BME280;38812;50.942;3.644;2023-09-18T09:38:55;100314.56;;;19.06;nan
52949;BME280;38812;50.942;3.644;2023-09-18T09:41:21;100318.16;;;19.19;nan
52949;BME280;38812;50.942;3.644;2023-09-18T09:43:46;100322.28;;;19.37;nan
52949;BME280;38812;50.942;3.644;2023-09-18T09:46:15;100322.94;;;19.41;nan
52949;BME280;38812;50.942;3.644;2023-09-18T09:49:00;100315.81;;;19.68;nan
52949;BME280;38812;50.942;3.644;2023-09-18T09:51:27;100310.75;;;20.03;nan
52949;BME280;38812;50.942;3.644;2023-09-18T09:53:52;100327.50;;;20.05;nan
52949;BME280;38812;50.942;3.644;2023-09-18T09:56:18;100326.22;;;20.62;nan
52949;BME280;38812;50.942;3.644;2023-09-18T09:58:44;100325.91;;;20.66;nan
52949;BME280;38812;50.942;3.644;2023-09-18T10:01:12;100340.03;;;21.05;nan
52949;BME280;38812;50.942;3.644;2023-09-18T10:03:44;100347.88;;;21.79;nan
52949;BME280;38812;50.942;3.644;2023-09-18T10:06:10;100349.81;;;22.01;nan
52949;BME280;38812;50.942;3.644;2023-09-18T10:08:40;100354.75;;;21.71;nan
52949;BME280;38812;50.942;3.644;2023-09-18T10:11:07;100358.34;;;22.06;nan
52949;BME280;38812;50.942;3.644;2023-09-18T10:13:41;100368.41;;;22.03;nan
52949;BME280;38812;50.942;3.644;2023-09-18T10:16:09;100349.19;;;21.74;nan
52949;BME280;38812;50.942;3.644;2023-09-18T10:21:30;100351.53;;;22.13;nan
52949;BME280;38812;50.942;3.644;2023-09-18T10:24:18;100351.53;;;22.13;nan
52949;BME280;38812;50.942;3.644;2023-09-18T10:26:51;100353.47;;;22.80;nan
52949;BME280;38812;50.942;3.644;2023-09-18T10:29:19;100359.53;;;22.48;nan
52949;BME280;38812;50.942;3.644;2023-09-18T10:31:47;100356.56;;;21.94;nan
52949;BME280;38812;50.942;3.644;2023-09-18T10:34:13;100357.00;;;22.12;nan
52949;BME280;38812;50.942;3.644;2023-09-18T10:36:41;100361.38;;;21.78;nan
52949;BME280;38812;50.942;3.644;2023-09-18T10:39:08;100360.66;;;22.11;nan
52949;BME280;38812;50.942;3.644;2023-09-18T10:41:36;100358.41;;;22.29;nan
52949;BME280;38812;50.942;3.644;2023-09-18T10:44:03;100358.03;;;22.33;nan
52949;BME280;38812;50.942;3.644;2023-09-18T10:46:29;100362.84;;;23.08;nan
52949;BME280;38812;50.942;3.644;2023-09-18T10:48:56;100372.72;;;23.50;nan
52949;BME280;38812;50.942;3.644;2023-09-18T10:51:22;100371.13;;;23.70;nan
52949;BME280;38812;50.942;3.644;2023-09-18T10:53:48;100386.66;;;23.22;nan
52949;BME280;38812;50.942;3.644;2023-09-18T10:56:15;100378.19;;;22.95;nan
52949;BME280;38812;50.942;3.644;2023-09-18T10:58:42;100376.69;;;23.35;nan
52949;BME280;38812;50.942;3.644;2023-09-18T11:01:11;100371.47;;;23.11;nan
52949;BME280;38812;50.942;3.644;2023-09-18T11:03:37;100363.72;;;23.40;nan
52949;BME280;38812;50.942;3.644;2023-09-18T11:06:04;100367.53;;;23.27;nan
52949;BME280;38812;50.942;3.644;2023-09-18T11:08:33;100367.94;;;23.65;nan
52949;BME280;38812;50.942;3.644;2023-09-18T11:11:07;100371.19;;;23.37;nan
52949;BME280;38812;50.942;3.644;2023-09-18T11:13:52;100365.41;;;23.64;nan
52949;BME280;38812;50.942;3.644;2023-09-18T11:21:32;100368.31;;;23.72;nan
52949;BME280;38812;50.942;3.644;2023-09-18T11:23:59;100369.16;;;22.96;nan
52949;BME280;38812;50.942;3.644;2023-09-18T11:26:29;100360.81;;;23.54;nan
52949;BME280;38812;50.942;3.644;2023-09-18T11:28:58;100379.03;;;23.72;nan
52949;BME280;38812;50.942;3.644;2023-09-18T11:31:44;100368.16;;;23.19;nan
52949;BME280;38812;50.942;3.644;2023-09-18T11:34:14;100362.03;;;23.82;nan
52949;BME280;38812;50.942;3.644;2023-09-18T11:36:40;100359.06;;;23.97;nan
52949;BME280;38812;50.942;3.644;2023-09-18T11:39:05;100354.16;;;24.02;nan
52949;BME280;38812;50.942;3.644;2023-09-18T11:41:33;100352.66;;;23.56;nan
52949;BME280;38812;50.942;3.644;2023-09-18T11:46:45;100343.88;;;24.27;nan
52949;BME280;38812;50.942;3.644;2023-09-18T11:49:11;100329.47;;;24.29;nan
52949;BME280;38812;50.942;3.644;2023-09-18T11:51:37;100322.72;;;23.92;nan
52949;BME280;38812;50.942;3.644;2023-09-18T11:54:05;100328.63;;;24.28;nan
52949;BME280;38812;50.942;3.644;2023-09-18T11:56:33;100322.75;;;23.61;nan
52949;BME280;38812;50.942;3.644;2023-09-18T11:58:58;100315.72;;;23.60;nan
52949;BME280;38812;50.942;3.644;2023-09-18T12:01:25;100320.59;;;23.54;nan
52949;BME280;38812;50.942;3.644;2023-09-18T12:04:00;100320.16;;;23.27;nan
52949;BME280;38812;50.942;3.644;2023-09-18T12:06:26;100303.59;;;23.22;nan
52949;BME280;38812;50.942;3.644;2023-09-18T12:08:52;100294.91;;;23.93;nan
52949;BME280;38812;50.942;3.644;2023-09-18T12:11:18;100288.25;;;23.88;nan
52949;BME280;38812;50.942;3.644;2023-09-18T12:13:54;100291.50;;;24.33;nan
52949;BME280;38812;50.942;3.644;2023-09-18T12:16:19;100264.28;;;24.17;nan
52949;BME280;38812;50.942;3.644;2023-09-18T12:18:46;100284.25;;;24.45;nan
52949;BME280;38812;50.942;3.644;2023-09-18T12:21:14;100288.19;;;24.81;nan
52949;BME280;38812;50.942;3.644;2023-09-18T12:23:41;100275.78;;;24.89;nan
52949;BME280;38812;50.942;3.644;2023-09-18T12:26:10;100269.44;;;24.60;nan
52949;BME280;38812;50.942;3.644;2023-09-18T12:28:38;100281.59;;;24.03;nan
52949;BME280;38812;50.942;3.644;2023-09-18T12:31:04;100286.47;;;23.45;nan
52949;BME280;38812;50.942;3.644;2023-09-18T12:33:34;100270.13;;;23.48;nan
52949;BME280;38812;50.942;3.644;2023-09-18T12:35:59;100278.81;;;23.73;nan
52949;BME280;38812;50.942;3.644;2023-09-18T12:38:24;100283.00;;;24.58;nan
52949;BME280;38812;50.942;3.644;2023-09-18T12:40:55;100264.09;;;24.60;nan
52949;BME280;38812;50.942;3.644;2023-09-18T12:43:21;100251.69;;;24.38;nan
52949;BME280;38812;50.942;3.644;2023-09-18T12:45:48;100245.69;;;24.04;nan
52949;BME280;38812;50.942;3.644;2023-09-18T12:48:15;100229.44;;;23.75;nan
52949;BME280;38812;50.942;3.644;2023-09-18T12:50:41;100242.59;;;23.57;nan
52949;BME280;38812;50.942;3.644;2023-09-18T12:53:11;100221.69;;;23.82;nan
52949;BME280;38812;50.942;3.644;2023-09-18T12:55:37;100216.41;;;23.91;nan
52949;BME280;38812;50.942;3.644;2023-09-18T12:58:03;100222.25;;;23.76;nan
52949;BME280;38812;50.942;3.644;2023-09-18T13:00:34;100206.13;;;23.34;nan
52949;BME280;38812;50.942;3.644;2023-09-18T13:02:59;100196.84;;;23.06;nan
52949;BME280;38812;50.942;3.644;2023-09-18T13:05:25;100203.38;;;22.81;nan
52949;BME280;38812;50.942;3.644;2023-09-18T13:07:52;100188.91;;;22.73;nan
52949;BME280;38812;50.942;3.644;2023-09-18T13:10:18;100199.25;;;22.66;nan
52949;BME280;38812;50.942;3.644;2023-09-18T13:12:52;100249.38;;;22.53;nan
52949;BME280;38812;50.942;3.644;2023-09-18T13:15:29;100256.94;;;22.37;nan
52949;BME280;38812;50.942;3.644;2023-09-18T13:17:55;100297.09;;;21.08;nan